createdAt,value
2017-08-01T04:30:36.711Z,15.03
2017-08-01T04:33:04.970Z,14.73
2017-08-01T04:35:33.234Z,15.13
2017-08-01T04:38:01.552Z,15.40
2017-08-01T04:40:29.811Z,14.83
2017-08-01T04:42:58.102Z,14.57
2017-08-01T04:45:26.697Z,14.17
2017-08-01T04:47:55.050Z,13.07
2017-08-01T04:50:23.423Z,12.87
2017-08-01T04:52:51.711Z,10.93
2017-08-01T04:55:20.075Z,11.07
2017-08-01T04:57:48.350Z,11.93
2017-08-01T05:00:16.679Z,9.70
2017-08-01T05:02:45.006Z,11.03
2017-08-01T05:05:13.382Z,9.10
2017-08-01T05:07:41.718Z,10.27
2017-08-01T05:10:10.035Z,11.23
2017-08-01T05:12:38.361Z,10.80
2017-08-01T05:15:07.423Z,11.93
2017-08-01T05:17:35.666Z,11.50
2017-08-01T05:20:04.078Z,11.57
2017-08-01T05:22:33.370Z,10.43
2017-08-01T05:25:02.582Z,8.97
2017-08-01T05:27:30.851Z,10.20
2017-08-01T05:29:59.423Z,10.17
2017-08-01T05:32:27.713Z,8.77
2017-08-01T05:34:56.007Z,8.60
2017-08-01T05:37:25.028Z,6.97
2017-08-01T05:39:53.282Z,7.67
2017-08-01T05:42:23.250Z,6.83
2017-08-01T05:44:51.506Z,7.90
2017-08-01T05:47:19.799Z,7.67
2017-08-01T05:49:48.311Z,7.17
2017-08-01T05:52:17.513Z,6.47
2017-08-01T05:54:45.786Z,9.93
2017-08-01T05:57:14.117Z,8.50
2017-08-01T05:59:42.415Z,8.60
2017-08-01T06:02:10.671Z,9.63
2017-08-01T06:04:38.951Z,9.03
2017-08-01T06:07:07.243Z,8.87
2017-08-01T06:09:35.522Z,7.73
2017-08-01T06:12:03.916Z,8.73
2017-08-01T06:14:32.150Z,8.53
2017-08-01T06:17:00.438Z,8.53
2017-08-01T06:19:28.723Z,8.30
2017-08-01T06:21:57.006Z,7.87
2017-08-01T06:24:25.262Z,7.10
2017-08-01T06:26:53.567Z,8.70
2017-08-01T06:29:21.931Z,9.13
2017-08-01T15:02:04.183Z,4.50
2017-08-01T15:04:32.464Z,4.37
2017-08-01T15:07:00.752Z,3.70
2017-08-01T15:09:29.126Z,4.13
2017-08-01T15:11:57.508Z,3.80
2017-08-01T15:14:25.768Z,3.80
2017-08-01T15:16:54.276Z,3.70
2017-08-01T15:19:22.638Z,3.57
2017-08-01T15:21:50.900Z,3.40
2017-08-01T15:24:19.187Z,3.77
2017-08-01T15:26:47.450Z,3.90
2017-08-01T15:29:15.727Z,3.50
2017-08-01T15:31:43.999Z,3.73
2017-08-01T15:34:12.299Z,3.20
2017-08-01T15:36:40.651Z,3.13
2017-08-01T15:39:08.993Z,3.40
2017-08-01T15:41:38.011Z,3.37
2017-08-01T15:44:06.295Z,3.07
2017-08-01T15:46:34.703Z,3.53
2017-08-01T15:49:02.991Z,3.03
2017-08-01T15:51:31.370Z,3.33
2017-08-01T15:53:59.740Z,3.90
2017-08-01T15:56:27.992Z,3.30
2017-08-01T15:58:56.279Z,3.40
2017-08-01T16:01:24.532Z,4.00
2017-08-01T16:03:52.850Z,4.00
2017-08-01T16:06:21.111Z,4.10
2017-08-01T16:08:49.392Z,3.50
2017-08-01T16:11:17.651Z,4.20
2017-08-01T16:13:45.934Z,4.50
2017-08-01T16:16:14.187Z,3.70
2017-08-01T16:18:42.463Z,4.53
2017-08-01T16:21:10.776Z,4.10
2017-08-01T16:23:39.037Z,5.30
2017-08-01T16:26:07.290Z,8.90
2017-08-01T16:28:35.588Z,16.40
2017-08-01T16:31:03.880Z,5.40
2017-08-01T16:33:32.139Z,4.70
2017-08-01T16:36:00.491Z,7.50
2017-08-01T16:38:28.808Z,4.93
2017-08-01T16:40:57.094Z,4.93
2017-08-01T16:43:25.470Z,5.83
2017-08-01T16:45:53.779Z,4.63
2017-08-01T16:48:22.943Z,7.70
2017-08-01T16:50:51.223Z,13.70
2017-08-01T16:53:19.602Z,6.60
2017-08-01T16:55:47.875Z,6.70
2017-08-01T16:58:16.905Z,6.37
2017-08-01T17:00:45.211Z,8.20
2017-08-01T17:03:13.467Z,10.00
2017-08-01T17:05:41.768Z,8.13
2017-08-01T17:08:10.064Z,7.00
2017-08-01T17:10:38.355Z,7.13
2017-08-01T17:13:06.616Z,7.23
2017-08-01T17:15:35.204Z,8.07
2017-08-01T17:18:03.586Z,6.67
2017-08-01T17:20:31.971Z,7.20
2017-08-01T17:23:00.231Z,7.73
2017-08-01T17:25:28.515Z,6.27
2017-08-01T17:27:56.779Z,7.57
2017-08-01T17:30:26.004Z,10.03
2017-08-01T17:32:55.039Z,10.90
2017-08-01T17:35:23.303Z,8.83
2017-08-01T17:37:51.625Z,9.10
2017-08-01T17:40:19.989Z,8.80
2017-08-01T17:42:48.244Z,10.83
2017-08-01T17:45:16.544Z,11.67
2017-08-01T17:47:44.823Z,8.43
2017-08-01T17:50:13.116Z,9.23
2017-08-01T17:52:41.621Z,8.07
2017-08-01T17:55:11.003Z,8.20
2017-08-01T17:57:39.283Z,8.00
2017-08-01T18:00:07.754Z,9.57
2017-08-01T18:02:36.027Z,9.97
2017-08-01T18:05:04.290Z,10.73
2017-08-01T18:07:33.382Z,11.90
2017-08-01T18:10:01.797Z,17.30
2017-08-01T18:12:30.992Z,12.50
2017-08-01T18:15:00.068Z,11.17
2017-08-01T18:17:28.363Z,11.20
2017-08-01T18:19:56.720Z,12.03
2017-08-01T18:22:25.095Z,11.47
2017-08-01T18:24:53.488Z,9.57
2017-08-01T18:27:21.867Z,11.40
2017-08-01T18:29:51.108Z,11.67
2017-08-01T18:32:19.428Z,11.73
2017-08-01T18:34:47.696Z,12.07
2017-08-01T18:37:15.980Z,11.20
2017-08-01T18:39:44.334Z,11.40
2017-08-01T18:42:12.753Z,10.20
2017-08-01T18:44:41.008Z,10.20
2017-08-01T18:47:09.324Z,11.40
2017-08-01T18:49:38.366Z,14.43
2017-08-01T18:52:06.651Z,14.80
2017-08-01T18:54:35.259Z,13.37
2017-08-01T18:57:04.376Z,11.50
2017-08-01T18:59:33.543Z,11.90
2017-08-01T19:02:01.857Z,10.90
2017-08-01T19:04:31.035Z,13.90
2017-08-01T19:07:00.131Z,13.57
2017-08-01T19:09:29.603Z,14.90
2017-08-01T19:14:29.762Z,13.83
2017-08-01T19:16:58.132Z,13.97
2017-08-01T19:19:28.299Z,12.17
2017-08-01T19:21:56.601Z,11.67
2017-08-01T19:24:24.868Z,15.80
2017-08-01T19:26:54.001Z,14.67
2017-08-01T19:29:22.384Z,13.27
2017-08-01T19:31:51.586Z,11.00
2017-08-01T19:34:19.852Z,10.70
2017-08-01T19:36:48.225Z,10.20
2017-08-01T19:39:16.934Z,11.17
2017-08-01T19:41:45.814Z,8.83
2017-08-01T19:44:14.604Z,9.90
2017-08-01T19:46:44.016Z,10.17
2017-08-01T19:49:12.486Z,9.40
2017-08-01T19:51:40.954Z,9.33
2017-08-01T19:54:09.336Z,9.80
2017-08-01T19:56:38.059Z,10.80
2017-08-01T19:59:06.385Z,10.80
2017-08-01T20:01:34.673Z,10.10
2017-08-01T20:04:03.043Z,9.67
2017-08-01T20:06:31.343Z,11.97
2017-08-01T20:09:00.538Z,10.07
2017-08-01T20:11:29.007Z,8.73
2017-08-01T20:13:57.275Z,10.00
2017-08-01T20:16:25.777Z,11.43
2017-08-01T20:18:54.074Z,13.53
2017-08-01T20:21:23.353Z,12.60
2017-08-01T20:23:51.714Z,12.97
2017-08-01T20:26:20.416Z,13.77
2017-08-01T20:28:48.898Z,10.47
2017-08-01T20:31:17.213Z,13.23
2017-08-01T20:33:46.280Z,13.07
2017-08-01T20:36:15.356Z,10.93
2017-08-01T20:38:44.048Z,14.50
2017-08-01T20:41:12.418Z,17.60
2017-08-01T20:43:40.731Z,16.00
2017-08-01T20:46:09.807Z,15.70
2017-08-01T20:48:38.171Z,16.50
2017-08-01T20:51:06.558Z,14.97
2017-08-01T20:53:34.924Z,13.50
2017-08-01T20:56:03.200Z,17.50
2017-08-01T20:58:31.564Z,18.77
2017-08-01T21:00:59.855Z,20.43
2017-08-01T21:03:28.236Z,26.43
2017-08-01T21:05:56.518Z,29.83
2017-08-01T21:08:24.897Z,28.87
2017-08-01T21:10:53.147Z,27.10
2017-08-01T21:13:21.459Z,26.77
2017-08-01T21:15:49.827Z,30.77
2017-08-01T21:18:18.094Z,35.80
2017-08-01T21:20:46.527Z,41.10
2017-08-01T21:23:15.677Z,44.80
2017-08-01T21:25:43.922Z,46.83
2017-08-01T21:28:12.315Z,44.20
2017-08-01T21:30:40.812Z,47.90
2017-08-01T21:33:09.079Z,49.63
2017-08-01T21:35:37.454Z,43.67
2017-08-01T21:38:05.718Z,42.57
2017-08-01T21:40:33.979Z,48.20
2017-08-01T21:43:02.283Z,49.73
2017-08-01T21:45:30.568Z,45.00
2017-08-01T21:47:58.879Z,40.97
2017-08-01T21:50:27.206Z,35.13
2017-08-01T21:52:55.482Z,30.23
2017-08-01T21:55:24.091Z,27.43
2017-08-01T21:57:52.442Z,28.47
2017-08-01T22:00:20.839Z,24.33
2017-08-01T22:02:49.083Z,21.40
2017-08-01T22:05:17.388Z,20.43
2017-08-01T22:07:45.652Z,21.20
2017-08-01T22:10:13.964Z,18.90
2017-08-01T22:12:42.986Z,20.57
2017-08-01T22:15:11.246Z,16.80
2017-08-01T22:17:39.530Z,15.00
2017-08-01T22:20:07.852Z,14.50
2017-08-01T22:22:36.346Z,14.87
2017-08-01T22:25:04.704Z,13.90
2017-08-01T22:27:32.982Z,16.93
2017-08-01T22:30:01.378Z,18.73
2017-08-01T22:32:29.634Z,17.80
2017-08-01T22:34:58.246Z,14.23
2017-08-01T22:37:26.599Z,15.60
2017-08-01T22:39:54.978Z,15.40
2017-08-01T22:42:23.279Z,18.60
2017-08-01T22:44:51.547Z,18.93
